Terminal Aerodrome Forecast
Issued by NWS

Home | Current Version | Previous Version | Text Only | Print | Product List | Glossary On
Versions: 1 2 3 4 5 6 7 8 9 10 11 12 13 14 15 16 17 18 19 20 21 22 23 24 25
000
FTUS46 KLOX 072338
TAFPRB
TAF
KPRB 072338Z 0800/0824 10007KT P6SM OVC100
     FM080200 VRB03KT P6SM SCT040 OVC070
     FM081200 15006KT 4SM -RA SCT010 OVC020
     FM081800 18008KT 2SM -RA BR OVC008=

USA.gov is the U.S. government's official web portal to all federal, state and local government web resources and services.